Pagrindinis puslapis
METAR-TAF:

METAR-TAF

Oro uostai :

Puant a Pitras, Gvadelupa

platuma: 16-16N, ilguma: 061-31W, Aukštis: 11 m

Dabartinis oras

Ataskaita buvo paskelbta 34 minutes, ne 22:30 UTC
Vėjas 10 kt iš Rytų/Pietryčių
Temperatūra 28°C
Drėgmė 70%
Slėgis 1015 hPa
Matomumas 10 km arba daugiau
Išsisklaidę debesys ne aukštis 3000 ft
Išsisklaidę debesys ne aukštis 3700 ft

METAR: TFFR 302230Z AUTO 11010KT 9999 SCT030 SCT037 28/22 Q1015 TEMPO 4000 -SHRA BKN018TCU

Laikas: 19:04 (23:04 UTC)

Prognozė

Ataskaita buvo paskelbta 7 valandos ir 4 minutes, ne 16:00 UTC
Prognozė galioja nuo 30 metu 18 UTC su 31 metu 18 UTC
Vėjas 13 kt iš Rytų
Matomumas 10 km arba daugiau
Išsisklaidę debesys ne aukštis 3000 ft
Tikimybė 40% :
Laikinai
nuo 31 metu 00 UTC su 31 metu 06 UTC
Matomumas: 4000 m
Su prošvaistėmis ne aukštis 1800 ft, aukštai iškilę kamuoliniai debesys.
lietus
Tikimybė 40%
nuo 31 metu 00 UTC su 31 metu 12 UTC
Vėjas 3 kt nuo kintamojo kryptimis

TAF: TFFR 301600Z 3018/3118 10013KT 9999 SCT030 PROB40 TEMPO 3100/3106 4000 -SHRA BKN018TCU PROB40 3100/3112 VRB03KT

Orai ataskaitas ir orų prognozės (METAR, TAF).

turimą stotys yra geltonos ir raudonos taškus žemėlapyje.

Perkelti pele per norėdami pamatyti stoties vardą.

Tada spustelėkite, norėdami matyti oro stebėjimo ir prognozės.

Norėdami pakeisti žemėlapį: spustelėkite ant žalios mygtukų su juodo kryžiaus žemyn,; žalią mygtuką su brūkšneliu, jei norite nutolinti; arba žalių rodyklių gretimoms žemėlapius.


METAR-TAF: